createdAt,value
2023-05-05T00:05:26.930Z,3.17
2023-05-05T00:08:14.521Z,3.22
2023-05-05T00:11:03.280Z,3.50
2023-05-05T00:13:52.771Z,3.38
2023-05-05T00:16:40.463Z,3.28
2023-05-05T00:19:28.233Z,3.30
2023-05-05T00:22:16.230Z,3.28
2023-05-05T00:25:04.833Z,3.90
2023-05-05T00:27:52.588Z,3.05
2023-05-05T00:30:42.317Z,2.97
2023-05-05T00:33:30.536Z,3.03
2023-05-05T00:36:18.608Z,3.40
2023-05-05T00:39:06.833Z,3.20
2023-05-05T00:41:54.718Z,3.50
2023-05-05T00:44:44.876Z,3.65
2023-05-05T00:47:34.676Z,3.60
2023-05-05T00:50:25.192Z,3.60
2023-05-05T00:53:14.447Z,3.50
2023-05-05T00:56:02.720Z,3.28
2023-05-05T00:58:50.547Z,3.28
2023-05-05T01:01:40.452Z,3.10
2023-05-05T01:04:30.887Z,3.45
2023-05-05T01:07:33.896Z,3.33
2023-05-05T01:13:26.708Z,3.45
2023-05-05T01:16:19.694Z,3.60
2023-05-05T01:19:26.302Z,4.00
2023-05-05T01:22:19.342Z,3.78
2023-05-05T01:25:28.583Z,3.70
2023-05-05T01:28:29.193Z,3.92
2023-05-05T01:31:37.462Z,3.63
2023-05-05T01:34:28.597Z,3.92
2023-05-05T01:37:29.980Z,4.20
2023-05-05T01:40:23.136Z,3.92
2023-05-05T01:43:13.341Z,3.67
2023-05-05T01:46:06.136Z,3.33
2023-05-05T01:48:57.043Z,3.75
2023-05-05T01:51:47.288Z,3.97
2023-05-05T01:54:36.735Z,3.85
2023-05-05T01:57:26.560Z,4.05
2023-05-05T02:00:16.803Z,3.95
2023-05-05T02:03:06.485Z,4.30
2023-05-05T02:05:56.474Z,4.38
2023-05-05T02:08:45.811Z,4.35
2023-05-05T02:11:33.640Z,4.60
2023-05-05T02:14:22.812Z,4.80
2023-05-05T02:17:12.311Z,4.78
2023-05-05T02:20:02.017Z,4.80
2023-05-05T02:22:51.637Z,4.70
2023-05-05T02:25:43.573Z,4.60
2023-05-05T02:28:36.371Z,4.33
2023-05-05T02:31:27.743Z,4.63
2023-05-05T02:34:22.244Z,4.65
2023-05-05T02:37:13.585Z,4.47
2023-05-05T02:40:06.635Z,4.38
2023-05-05T02:42:57.160Z,4.47
2023-05-05T02:45:45.146Z,4.90
2023-05-05T02:48:32.981Z,4.65
2023-05-05T02:51:20.917Z,4.20
2023-05-05T02:54:08.807Z,4.35
2023-05-05T02:57:01.861Z,4.63
2023-05-05T02:59:56.622Z,4.38
2023-05-05T03:02:52.906Z,4.30
2023-05-05T03:05:47.407Z,4.53
2023-05-05T03:08:43.763Z,4.18
2023-05-05T03:11:45.678Z,4.20
2023-05-05T03:14:41.535Z,4.22
2023-05-05T03:17:32.774Z,4.20
2023-05-05T03:20:21.951Z,4.15
2023-05-05T03:23:10.377Z,3.85
2023-05-05T03:25:57.991Z,4.07
2023-05-05T03:28:46.052Z,3.80
2023-05-05T03:31:35.866Z,4.15
2023-05-05T03:34:23.886Z,3.72
2023-05-05T03:37:11.846Z,4.07
2023-05-05T03:39:59.754Z,4.10
2023-05-05T03:42:47.799Z,3.90
2023-05-05T03:45:36.004Z,4.20
2023-05-05T03:48:25.565Z,4.28
2023-05-05T03:51:14.429Z,4.20
2023-05-05T03:54:03.151Z,4.13
2023-05-05T03:56:51.052Z,4.78
2023-05-05T03:59:39.101Z,4.43
2023-05-05T04:02:27.052Z,4.55
2023-05-05T04:05:16.528Z,4.40
2023-05-05T04:08:04.711Z,4.47
2023-05-05T04:10:52.489Z,4.50
2023-05-05T04:13:40.482Z,4.30
2023-05-05T04:16:28.527Z,4.85
2023-05-05T04:19:17.753Z,4.75
2023-05-05T04:22:07.068Z,4.68
2023-05-05T04:24:55.308Z,4.22
2023-05-05T04:27:43.077Z,4.03
2023-05-05T04:30:31.060Z,4.35
2023-05-05T04:33:19.195Z,4.15
2023-05-05T04:36:07.787Z,4.53
2023-05-05T04:38:57.490Z,4.28
2023-05-05T04:41:45.294Z,4.68
2023-05-05T04:44:36.187Z,6.32
2023-05-05T04:47:24.292Z,3.80
2023-05-05T04:50:13.889Z,5.93
2023-05-05T04:53:04.133Z,6.60
2023-05-05T04:55:59.568Z,5.38
2023-05-05T04:58:51.154Z,4.90
2023-05-05T05:01:39.649Z,5.13
2023-05-05T05:04:27.534Z,4.82
2023-05-05T05:07:18.346Z,4.60
2023-05-05T05:10:07.318Z,4.63
2023-05-05T05:12:58.432Z,4.75
2023-05-05T05:15:47.212Z,5.65
2023-05-05T05:18:37.676Z,5.40
2023-05-05T05:21:26.038Z,5.18
2023-05-05T05:24:13.731Z,5.53
2023-05-05T05:27:01.584Z,5.07
2023-05-05T05:29:51.361Z,5.88
2023-05-05T05:32:39.443Z,5.25
2023-05-05T05:35:27.552Z,5.13
2023-05-05T05:38:15.227Z,4.43
2023-05-05T05:41:07.758Z,5.20
2023-05-05T05:43:55.530Z,6.60
2023-05-05T05:46:45.086Z,5.10
2023-05-05T05:49:32.953Z,6.28
2023-05-05T05:52:21.136Z,6.03
2023-05-05T05:55:12.282Z,6.75
2023-05-05T05:58:00.249Z,5.57
2023-05-05T06:00:49.307Z,6.25
2023-05-05T06:03:38.566Z,5.90
2023-05-05T06:06:27.886Z,6.55
2023-05-05T06:09:15.578Z,6.28
2023-05-05T06:12:04.095Z,6.80
2023-05-05T06:14:52.323Z,7.68
2023-05-05T06:17:40.403Z,6.82
2023-05-05T06:20:29.757Z,6.63
2023-05-05T06:23:17.612Z,6.70
2023-05-05T06:26:05.441Z,5.70
2023-05-05T06:28:53.565Z,5.80
2023-05-05T06:31:41.567Z,6.38
2023-05-05T06:34:29.426Z,5.15
2023-05-05T06:37:18.879Z,5.65
2023-05-05T06:40:08.177Z,6.53
2023-05-05T06:42:56.344Z,5.70
2023-05-05T06:45:44.145Z,5.50
2023-05-05T06:48:32.103Z,4.32
2023-05-05T06:51:20.361Z,4.22
2023-05-05T06:54:09.666Z,5.05
2023-05-05T06:56:59.576Z,6.13
2023-05-05T06:59:47.645Z,4.68
2023-05-05T07:02:35.829Z,4.88
2023-05-05T07:05:23.807Z,5.22
2023-05-05T07:08:11.750Z,5.05
2023-05-05T07:11:01.825Z,5.63
2023-05-05T07:13:50.167Z,5.80
2023-05-05T07:16:38.140Z,5.80
2023-05-05T07:19:25.983Z,7.00
2023-05-05T07:22:14.083Z,6.95
2023-05-05T07:25:02.624Z,7.15
2023-05-05T07:27:52.662Z,6.18
2023-05-05T07:30:40.302Z,6.03
2023-05-05T07:33:28.722Z,4.93
2023-05-05T07:36:18.819Z,5.20
2023-05-05T07:39:06.748Z,6.30
2023-05-05T07:41:54.654Z,4.70
2023-05-05T07:44:43.965Z,5.78
2023-05-05T07:47:31.809Z,5.30
2023-05-05T07:50:20.645Z,4.57
2023-05-05T07:53:14.465Z,4.53
2023-05-05T07:56:02.776Z,8.23
2023-05-05T07:58:50.264Z,10.88
2023-05-05T08:01:40.104Z,8.10
2023-05-05T08:04:28.166Z,5.85
2023-05-05T08:07:16.226Z,8.35
2023-05-05T08:10:04.117Z,11.25
2023-05-05T08:12:52.474Z,11.88
2023-05-05T08:15:40.507Z,6.00
2023-05-05T08:18:30.118Z,5.72
2023-05-05T08:21:18.482Z,5.38
2023-05-05T08:24:06.720Z,5.20
2023-05-05T08:26:54.680Z,5.32
2023-05-05T08:29:46.124Z,5.38
2023-05-05T08:32:34.242Z,4.80
2023-05-05T08:35:23.376Z,4.25
2023-05-05T08:38:11.894Z,3.65
2023-05-05T08:41:00.147Z,3.58
2023-05-05T08:43:49.237Z,4.93
2023-05-05T08:46:39.714Z,4.68
2023-05-05T08:49:30.200Z,3.97
2023-05-05T08:52:23.542Z,4.18
2023-05-05T08:55:18.318Z,5.32
2023-05-05T08:58:07.382Z,8.50
2023-05-05T09:00:56.527Z,7.03
2023-05-05T09:03:44.693Z,7.00
2023-05-05T09:06:33.809Z,6.43
2023-05-05T09:09:24.804Z,5.65
2023-05-05T09:12:12.757Z,5.18
2023-05-05T09:15:03.771Z,4.00
2023-05-05T09:17:51.724Z,4.85
2023-05-05T09:20:40.566Z,10.15
2023-05-05T09:23:28.329Z,5.93
2023-05-05T09:26:17.660Z,6.22
2023-05-05T09:29:06.353Z,9.77
2023-05-05T09:32:05.677Z,6.93
2023-05-05T09:35:01.896Z,8.07
2023-05-05T09:37:49.978Z,6.82
2023-05-05T09:40:47.701Z,5.97
2023-05-05T09:43:52.819Z,5.70
2023-05-05T09:46:52.319Z,4.68
2023-05-05T09:49:40.394Z,3.15
2023-05-05T09:52:28.916Z,3.08
2023-05-05T09:55:19.563Z,3.53
2023-05-05T09:58:23.525Z,3.60
2023-05-05T10:01:24.249Z,3.65
2023-05-05T10:04:25.500Z,3.88
2023-05-05T10:07:24.973Z,5.15
2023-05-05T10:10:16.149Z,4.35
2023-05-05T10:13:04.240Z,7.07
2023-05-05T10:15:53.923Z,5.55
2023-05-05T10:18:48.252Z,7.80
2023-05-05T10:21:42.162Z,10.90
2023-05-05T10:24:39.670Z,11.05
2023-05-05T10:27:29.437Z,6.30
2023-05-05T10:30:23.511Z,4.28
2023-05-05T10:33:31.677Z,4.50
2023-05-05T10:36:22.218Z,3.30
2023-05-05T10:39:10.990Z,3.50
2023-05-05T10:42:02.992Z,3.45
2023-05-05T10:44:51.450Z,3.70
2023-05-05T10:48:02.318Z,3.38
2023-05-05T10:50:55.094Z,3.45
2023-05-05T10:53:55.669Z,3.60
2023-05-05T10:56:44.371Z,11.15
2023-05-05T10:59:44.920Z,4.45
2023-05-05T11:02:33.314Z,4.10
2023-05-05T11:05:22.724Z,4.20
2023-05-05T11:08:26.320Z,3.80
2023-05-05T11:11:16.197Z,5.43
2023-05-05T11:14:22.291Z,5.10
2023-05-05T11:17:46.437Z,6.50
2023-05-05T11:21:20.601Z,6.82
2023-05-05T11:24:28.834Z,5.07
2023-05-05T11:27:18.313Z,5.47
2023-05-05T11:30:11.760Z,5.13
2023-05-05T11:33:26.866Z,3.83
2023-05-05T11:36:16.073Z,3.95
2023-05-05T11:39:10.785Z,3.97
2023-05-05T11:42:27.766Z,3.83
2023-05-05T11:45:23.097Z,3.75
2023-05-05T11:48:26.588Z,3.78
2023-05-05T11:51:17.644Z,4.30
2023-05-05T11:54:05.765Z,4.05
2023-05-05T11:56:54.587Z,3.85
2023-05-05T12:02:42.747Z,4.15
2023-05-05T12:05:30.842Z,4.20
2023-05-05T12:08:19.565Z,5.30
2023-05-05T12:11:09.371Z,5.63
2023-05-05T12:14:17.998Z,5.55
2023-05-05T12:17:09.943Z,5.47
2023-05-05T12:22:45.445Z,3.97
2023-05-05T12:25:38.387Z,3.40
2023-05-05T12:28:26.258Z,3.15
2023-05-05T12:31:14.681Z,3.25
2023-05-05T12:34:04.770Z,3.20
2023-05-05T12:36:52.893Z,3.40
2023-05-05T12:39:41.110Z,3.72
2023-05-05T12:42:29.109Z,3.50
2023-05-05T12:45:19.029Z,3.50
2023-05-05T12:48:22.279Z,4.20
2023-05-05T12:51:17.906Z,4.65
2023-05-05T12:54:07.292Z,6.47
2023-05-05T12:56:56.435Z,10.25
2023-05-05T12:59:44.298Z,11.93
2023-05-05T13:02:36.037Z,11.30
2023-05-05T13:05:34.318Z,8.63
2023-05-05T13:08:23.830Z,10.45
2023-05-05T13:11:12.129Z,11.32
2023-05-05T13:13:59.878Z,14.95
2023-05-05T13:16:47.893Z,14.57
2023-05-05T13:19:41.859Z,15.27
2023-05-05T13:22:29.715Z,14.82
2023-05-05T13:25:19.276Z,13.55
2023-05-05T13:28:07.245Z,11.40
2023-05-05T13:30:55.833Z,12.43
2023-05-05T13:33:43.812Z,12.15
2023-05-05T13:36:31.583Z,12.45
2023-05-05T13:39:19.951Z,11.63
2023-05-05T13:42:09.077Z,10.73
2023-05-05T13:44:56.959Z,9.68
2023-05-05T13:47:45.153Z,7.75
2023-05-05T13:50:32.975Z,7.28
2023-05-05T13:53:21.827Z,4.15
2023-05-05T13:56:09.794Z,3.95
2023-05-05T13:58:59.149Z,3.58
2023-05-05T14:01:47.211Z,2.97
2023-05-05T14:04:36.105Z,4.07
2023-05-05T14:07:24.161Z,4.57
2023-05-05T14:10:12.258Z,3.85
2023-05-05T14:13:00.332Z,3.80
2023-05-05T14:15:50.746Z,5.50
2023-05-05T14:18:38.774Z,7.32
2023-05-05T14:21:27.707Z,7.43
2023-05-05T14:24:15.521Z,6.60
2023-05-05T14:27:04.370Z,4.65
2023-05-05T14:29:52.061Z,3.30
2023-05-05T14:32:41.527Z,3.22
2023-05-05T14:35:29.549Z,3.08
2023-05-05T14:38:18.472Z,3.13
2023-05-05T14:41:06.579Z,4.75
2023-05-05T14:43:54.740Z,5.70
2023-05-05T14:46:44.731Z,4.60
2023-05-05T14:49:35.494Z,4.82
2023-05-05T14:52:23.420Z,8.05
2023-05-05T14:55:11.964Z,6.53
2023-05-05T14:58:02.107Z,7.82
2023-05-05T15:00:49.916Z,7.30
2023-05-05T15:03:38.121Z,6.65
2023-05-05T15:06:28.123Z,4.80
2023-05-05T15:09:18.081Z,7.70
2023-05-05T15:12:06.622Z,4.13
2023-05-05T15:14:55.379Z,4.65
2023-05-05T15:17:43.636Z,3.78
2023-05-05T15:20:31.435Z,5.80
2023-05-05T15:23:21.332Z,6.88
2023-05-05T15:26:09.461Z,3.97
2023-05-05T15:28:57.614Z,6.32
2023-05-05T15:31:45.856Z,7.20
2023-05-05T15:34:33.563Z,6.30
2023-05-05T15:37:21.509Z,4.28
2023-05-05T15:40:12.677Z,5.50
2023-05-05T15:43:00.454Z,4.57
2023-05-05T15:45:48.504Z,4.57
2023-05-05T15:48:36.199Z,4.13
2023-05-05T15:51:24.239Z,4.18
2023-05-05T15:54:12.503Z,6.47
2023-05-05T15:57:03.114Z,4.97
2023-05-05T15:59:52.917Z,4.70
2023-05-05T16:02:40.998Z,4.75
2023-05-05T16:05:31.831Z,4.53
2023-05-05T16:08:19.840Z,4.32
2023-05-05T16:11:07.927Z,4.68
2023-05-05T16:13:57.293Z,4.90
2023-05-05T16:16:44.968Z,6.15
2023-05-05T16:19:33.142Z,6.10
2023-05-05T16:22:21.849Z,5.05
2023-05-05T16:25:10.393Z,6.78
2023-05-05T16:28:00.084Z,4.43
2023-05-05T16:30:49.323Z,4.78
2023-05-05T16:33:40.782Z,3.58
2023-05-05T16:36:28.920Z,2.78
2023-05-05T16:39:16.648Z,2.40
2023-05-05T16:42:04.612Z,2.83
2023-05-05T16:44:52.461Z,3.63
2023-05-05T16:47:41.731Z,4.40
2023-05-05T16:50:29.647Z,6.45
2023-05-05T16:53:18.918Z,7.00
2023-05-05T16:56:07.023Z,6.80
2023-05-05T16:58:54.712Z,6.13
2023-05-05T17:01:43.421Z,4.50
2023-05-05T17:04:32.683Z,3.00
2023-05-05T17:07:23.217Z,3.00
2023-05-05T17:10:11.806Z,2.70
2023-05-05T17:12:59.909Z,3.25
2023-05-05T17:15:47.766Z,3.10
2023-05-05T17:18:35.651Z,3.45
2023-05-05T17:21:25.092Z,3.30
2023-05-05T17:24:12.821Z,3.30
2023-05-05T17:27:00.893Z,3.13
2023-05-05T17:29:48.924Z,3.20
2023-05-05T17:32:37.204Z,3.60
2023-05-05T17:35:24.923Z,4.07
2023-05-05T17:38:14.288Z,3.80
2023-05-05T17:41:02.452Z,4.15
2023-05-05T17:43:50.401Z,4.20
2023-05-05T17:46:39.345Z,4.10
2023-05-05T17:49:27.433Z,3.85
2023-05-05T17:52:15.290Z,3.70
2023-05-05T17:55:12.898Z,3.80
2023-05-05T17:58:00.980Z,3.50
2023-05-05T18:00:51.913Z,3.92
2023-05-05T18:03:41.195Z,3.97
2023-05-05T18:06:29.396Z,3.90
2023-05-05T18:09:17.223Z,3.53
2023-05-05T18:12:07.752Z,3.22
2023-05-05T18:15:04.513Z,3.55
2023-05-05T18:17:54.099Z,3.85
2023-05-05T18:20:46.126Z,3.80
2023-05-05T18:23:36.587Z,4.00
2023-05-05T18:26:24.289Z,4.25
2023-05-05T18:29:15.985Z,4.75
2023-05-05T18:32:06.260Z,4.07
2023-05-05T18:34:53.992Z,3.28
2023-05-05T18:37:42.256Z,3.20
2023-05-05T18:40:29.892Z,3.53
2023-05-05T18:43:17.912Z,3.67
2023-05-05T18:46:07.283Z,3.70
2023-05-05T18:48:55.618Z,3.63
2023-05-05T18:51:43.498Z,4.15
2023-05-05T18:54:31.925Z,4.30
2023-05-05T18:57:20.112Z,4.60
2023-05-05T19:00:09.435Z,4.55
2023-05-05T19:02:59.582Z,4.55
2023-05-05T19:05:47.469Z,4.43
2023-05-05T19:08:37.764Z,5.32
2023-05-05T19:11:29.016Z,4.45
2023-05-05T19:14:17.735Z,4.57
2023-05-05T19:17:11.476Z,4.80
2023-05-05T19:20:01.856Z,4.47
2023-05-05T19:22:49.606Z,4.00
2023-05-05T19:25:41.461Z,3.35
2023-05-05T19:28:31.409Z,4.32
2023-05-05T19:31:19.941Z,4.78
2023-05-05T19:34:08.173Z,7.05
2023-05-05T19:36:57.729Z,4.10
2023-05-05T19:39:46.160Z,3.78
2023-05-05T19:42:36.177Z,4.13
2023-05-05T19:45:24.642Z,4.45
2023-05-05T19:48:12.757Z,4.15
2023-05-05T19:51:07.980Z,4.53
2023-05-05T19:53:57.292Z,3.33
2023-05-05T19:56:45.158Z,3.45
2023-05-05T19:59:33.978Z,3.20
2023-05-05T20:02:24.163Z,2.80
2023-05-05T20:05:14.005Z,3.10
2023-05-05T20:08:02.338Z,3.50
2023-05-05T20:10:51.694Z,3.63
2023-05-05T20:13:39.526Z,3.17
2023-05-05T20:16:27.764Z,3.00
2023-05-05T20:19:15.707Z,3.45
2023-05-05T20:22:03.708Z,3.45
2023-05-05T20:24:51.781Z,3.70
2023-05-05T20:27:41.443Z,3.45
2023-05-05T20:30:31.535Z,3.83
2023-05-05T20:33:19.761Z,3.58
2023-05-05T20:36:08.152Z,4.22
2023-05-05T20:39:01.923Z,4.15
2023-05-05T20:41:49.775Z,4.40
2023-05-05T20:44:39.992Z,4.68
2023-05-05T20:47:28.108Z,4.75
2023-05-05T20:50:17.849Z,5.38
2023-05-05T20:53:06.193Z,6.10
2023-05-05T20:55:53.992Z,6.85
2023-05-05T20:58:42.396Z,8.93
2023-05-05T21:01:31.614Z,8.45
2023-05-05T21:04:19.679Z,8.98
2023-05-05T21:07:07.785Z,6.78
2023-05-05T21:09:55.614Z,7.38
2023-05-05T21:12:43.785Z,6.22
2023-05-05T21:15:31.997Z,5.30
2023-05-05T21:18:21.050Z,4.65
2023-05-05T21:21:09.061Z,4.10
2023-05-05T21:23:57.717Z,4.03
2023-05-05T21:26:46.612Z,4.28
2023-05-05T21:29:37.634Z,4.28
2023-05-05T21:32:25.668Z,4.10
2023-05-05T21:35:15.052Z,3.70
2023-05-05T21:38:05.093Z,3.55
2023-05-05T21:40:58.284Z,3.13
2023-05-05T21:46:34.195Z,2.85
2023-05-05T21:49:22.130Z,3.03
2023-05-05T21:52:11.313Z,2.70
2023-05-05T21:54:58.951Z,2.97
2023-05-05T21:57:47.116Z,3.78
2023-05-05T22:00:35.218Z,3.95
2023-05-05T22:03:23.109Z,3.70
2023-05-05T22:06:12.306Z,3.40
2023-05-05T22:09:01.926Z,3.70
2023-05-05T22:11:49.717Z,4.43
2023-05-05T22:14:38.133Z,4.65
2023-05-05T22:17:25.937Z,4.45
2023-05-05T22:20:14.641Z,4.47
2023-05-05T22:23:02.509Z,4.22
2023-05-05T22:25:52.303Z,4.32
2023-05-05T22:28:39.941Z,4.22
2023-05-05T22:31:29.334Z,4.00
2023-05-05T22:34:18.654Z,4.07
2023-05-05T22:37:06.765Z,3.38
2023-05-05T22:39:55.105Z,3.53
2023-05-05T22:42:44.149Z,3.70
2023-05-05T22:45:34.453Z,3.15
2023-05-05T22:48:22.908Z,3.65
2023-05-05T22:51:11.261Z,3.33
2023-05-05T22:53:59.236Z,3.35
2023-05-05T22:56:47.906Z,5.13
2023-05-05T22:59:37.029Z,3.38
2023-05-05T23:02:26.497Z,3.53
2023-05-05T23:05:14.693Z,3.30
2023-05-05T23:08:02.883Z,3.53
2023-05-05T23:10:50.677Z,7.65
2023-05-05T23:13:38.686Z,4.10
2023-05-05T23:16:28.339Z,4.18
2023-05-05T23:19:16.523Z,4.10
2023-05-05T23:22:05.149Z,3.70
2023-05-05T23:24:52.886Z,4.97
2023-05-05T23:27:41.433Z,5.07
2023-05-05T23:30:29.363Z,2.97
2023-05-05T23:33:19.402Z,4.00
2023-05-05T23:36:07.799Z,3.28
2023-05-05T23:38:55.891Z,5.35
2023-05-05T23:41:43.974Z,9.63
2023-05-05T23:44:32.323Z,5.80
2023-05-05T23:47:20.070Z,5.13
2023-05-05T23:50:10.821Z,3.45
2023-05-05T23:52:58.859Z,10.50
2023-05-05T23:55:46.989Z,16.38
2023-05-05T23:58:35.097Z,13.30
